Archival Weather

Republic

Farmingdale, New York (KFRG)

Report from: Wednesday, February 7, 2024 4:53 AM EST
Current time: Friday, June 14, 2024 7:21 AM EDT

Current weather – Weather history – Daily summaries
Weather forecast

Temperature-1.7°C (28.9°F)
Wind chill-4.5°C (23.9°F)
Dew point-5.6°C (21.9°F)
Winds 4 kts (2.1 m/s, 4.6 mph) North-Northeast (20°)
Visibility10 mi. (16.1 km)
Clouds Sky clear
Altimeter30.26 in.Hg (1025 mB)
Relative humidity75 %
Density altitude-2,375 ft. (-724 m)
Sea-level pressure102.5 kPa (1025 mB, 30.26 in.Hg)
Remarks Fully automated report
Automated weather observing station without precipitation discriminator
Freezing rain sensor not operating
Flight conditions Visual Meteorological Conditions
Raw dataKFRG 070953Z AUTO 02004KT 10SM CLR M02/M06 A3026 RMK AO1 SLP247 T10171056 FZRANO
An error has occurred. This application may no longer respond until reloaded. Reload 🗙